Wetterdaten: Woche 25.08.14 - 31.08.14 (KW35)
Datum Zeit Temperatur Luftfeuchte Luftdruck Niederschlag Windrichtung Sonnenschein Solar Wind
25.08.2014 00:00 8,8 C 94 % 1018,6 hPa 0,0 l/m N 0,00 h 0 W/m 0,0 km/h (0 Bft)
25.08.2014 01:00 7,9 C 95 % 1018,4 hPa 0,0 l/m N 0,00 h 0 W/m 0,0 km/h (0 Bft)
25.08.2014 02:00 7,2 C 96 % 1017,8 hPa 0,0 l/m N 0,00 h 0 W/m 0,0 km/h (0 Bft)
25.08.2014 03:00 6,6 C 96 % 1017,5 hPa 0,0 l/m N 0,00 h 0 W/m 0,0 km/h (0 Bft)
25.08.2014 04:00 6,2 C 97 % 1017,2 hPa 0,0 l/m N 0,00 h 0 W/m 0,0 km/h (0 Bft)
25.08.2014 05:00 6,4 C 97 % 1017,0 hPa 0,0 l/m N 0,00 h 0 W/m 0,0 km/h (0 Bft)
25.08.2014 06:00 6,7 C 97 % 1017,2 hPa 0,0 l/m N 0,08 h 15 W/m 0,0 km/h (0 Bft)
25.08.2014 07:00 7,5 C 97 % 1017,3 hPa 0,0 l/m N 0,00 h 55 W/m 0,0 km/h (0 Bft)
25.08.2014 08:00 9,2 C 94 % 1017,3 hPa 0,0 l/m N 0,08 h 144 W/m 0,5 km/h (0 Bft)
25.08.2014 09:00 10,9 C 89 % 1017,4 hPa 0,0 l/m N 0,00 h 164 W/m 1,5 km/h (1 Bft)
25.08.2014 10:00 13,0 C 84 % 1017,3 hPa 0,0 l/m N-NW 0,17 h 268 W/m 5,6 km/h (1 Bft)
25.08.2014 11:00 14,5 C 76 % 1017,2 hPa 0,0 l/m S-SW 0,25 h 359 W/m 8,2 km/h (2 Bft)
25.08.2014 12:00 15,8 C 66 % 1016,5 hPa 0,0 l/m S-SW 0,67 h 484 W/m 8,4 km/h (2 Bft)
25.08.2014 13:00 17,4 C 61 % 1015,8 hPa 0,0 l/m SW 0,58 h 541 W/m 10,7 km/h (2 Bft)
25.08.2014 14:00 17,5 C 60 % 1015,0 hPa 0,0 l/m W-SW 0,25 h 372 W/m 12,5 km/h (3 Bft)
25.08.2014 15:00 17,1 C 57 % 1014,5 hPa 0,0 l/m W-SW 0,00 h 182 W/m 11,8 km/h (2 Bft)
25.08.2014 16:00 16,6 C 61 % 1014,4 hPa 0,0 l/m W-SW 0,00 h 120 W/m 9,1 km/h (2 Bft)
25.08.2014 17:00 15,8 C 69 % 1013,6 hPa 0,0 l/m SW 0,00 h 105 W/m 7,9 km/h (2 Bft)
25.08.2014 18:00 15,5 C 71 % 1013,3 hPa 0,0 l/m SW 0,00 h 62 W/m 11,6 km/h (2 Bft)
25.08.2014 19:00 14,7 C 75 % 1013,2 hPa 0,0 l/m SW 0,00 h 15 W/m 12,2 km/h (2 Bft)
25.08.2014 20:00 14,0 C 78 % 1013,3 hPa 0,0 l/m SW 0,00 h 0 W/m 13,7 km/h (3 Bft)
25.08.2014 21:00 13,3 C 82 % 1013,2 hPa 0,2 l/m W-SW 0,00 h 0 W/m 11,3 km/h (2 Bft)
25.08.2014 22:00 12,4 C 90 % 1012,1 hPa 0,2 l/m W-SW 0,00 h 0 W/m 5,2 km/h (1 Bft)
25.08.2014 23:00 12,3 C 93 % 1010,6 hPa 0,0 l/m W-SW 0,00 h 0 W/m 12,1 km/h (2 Bft)
26.08.2014 00:00 12,2 C 91 % 1009,8 hPa 0,0 l/m W-SW 0,00 h 0 W/m 4,8 km/h (1 Bft)
26.08.2014 01:00 12,1 C 93 % 1008,8 hPa 0,0 l/m N 0,00 h 0 W/m 1,6 km/h (1 Bft)
26.08.2014 02:00 11,8 C 95 % 1008,3 hPa 0,4 l/m N 0,00 h 0 W/m 1,2 km/h (1 Bft)
26.08.2014 03:00 11,8 C 97 % 1008,0 hPa 2,0 l/m W-SW 0,00 h 0 W/m 7,6 km/h (2 Bft)
26.08.2014 04:00 11,9 C 98 % 1006,9 hPa 1,2 l/m S-SW 0,00 h 0 W/m 17,8 km/h (3 Bft)
26.08.2014 05:00 12,1 C 98 % 1006,1 hPa 0,0 l/m SW 0,00 h 0 W/m 18,9 km/h (3 Bft)
26.08.2014 06:00 12,5 C 97 % 1005,8 hPa 0,2 l/m W-SW 0,00 h 5 W/m 21,8 km/h (4 Bft)
26.08.2014 07:00 12,8 C 97 % 1006,2 hPa 0,0 l/m SW 0,00 h 15 W/m 14,9 km/h (3 Bft)
26.08.2014 08:00 13,8 C 96 % 1006,4 hPa 0,0 l/m SW 0,00 h 72 W/m 21,3 km/h (4 Bft)
26.08.2014 09:00 14,9 C 94 % 1006,6 hPa 0,0 l/m W-SW 0,17 h 212 W/m 26,7 km/h (4 Bft)
26.08.2014 10:00 16,6 C 88 % 1006,6 hPa 0,0 l/m W-SW 0,17 h 333 W/m 25,6 km/h (4 Bft)
26.08.2014 11:00 17,0 C 85 % 1006,8 hPa 0,0 l/m SW 0,00 h 178 W/m 26,3 km/h (4 Bft)
26.08.2014 12:00 17,3 C 84 % 1006,8 hPa 0,0 l/m W-SW 0,00 h 266 W/m 27,0 km/h (4 Bft)
26.08.2014 13:00 17,3 C 84 % 1006,8 hPa 0,2 l/m W-SW 0,08 h 253 W/m 28,0 km/h (4 Bft)
26.08.2014 14:00 16,4 C 91 % 1006,7 hPa 0,0 l/m W-SW 0,00 h 98 W/m 18,8 km/h (3 Bft)
26.08.2014 15:00 16,9 C 89 % 1006,5 hPa 0,0 l/m W-SW 0,00 h 124 W/m 18,9 km/h (3 Bft)
26.08.2014 16:00 17,9 C 86 % 1006,0 hPa 0,0 l/m W-SW 0,00 h 220 W/m 20,2 km/h (4 Bft)
26.08.2014 17:00 17,9 C 86 % 1005,5 hPa 0,0 l/m SW 0,00 h 121 W/m 24,0 km/h (4 Bft)
26.08.2014 18:00 17,3 C 90 % 1005,4 hPa 0,0 l/m SW 0,00 h 106 W/m 22,0 km/h (4 Bft)
26.08.2014 19:00 16,9 C 90 % 1005,5 hPa 0,0 l/m SW 0,08 h 35 W/m 16,2 km/h (3 Bft)
26.08.2014 20:00 16,6 C 90 % 1006,1 hPa 0,0 l/m W-SW 0,00 h 5 W/m 21,7 km/h (4 Bft)
26.08.2014 21:00 16,3 C 89 % 1006,8 hPa 0,0 l/m W-SW 0,00 h 0 W/m 18,8 km/h (3 Bft)
26.08.2014 22:00 16,1 C 90 % 1007,1 hPa 0,0 l/m SW 0,00 h 0 W/m 16,5 km/h (3 Bft)
26.08.2014 23:00 15,4 C 91 % 1007,6 hPa 0,0 l/m W-SW 0,00 h 0 W/m 19,0 km/h (3 Bft)
27.08.2014 00:00 15,7 C 86 % 1008,2 hPa 0,0 l/m W-SW 0,00 h 0 W/m 15,4 km/h (3 Bft)
27.08.2014 01:00 14,6 C 90 % 1008,5 hPa 2,4 l/m W-SW 0,00 h 0 W/m 14,9 km/h (3 Bft)
27.08.2014 02:00 13,2 C 95 % 1008,4 hPa 0,2 l/m W-SW 0,00 h 0 W/m 13,0 km/h (3 Bft)
27.08.2014 03:00 13,1 C 96 % 1008,7 hPa 0,0 l/m W-SW 0,00 h 0 W/m 14,9 km/h (3 Bft)
27.08.2014 04:00 13,3 C 97 % 1009,0 hPa 0,0 l/m W-SW 0,00 h 0 W/m 11,4 km/h (2 Bft)
27.08.2014 05:00 13,2 C 97 % 1009,4 hPa 0,0 l/m W-SW 0,00 h 0 W/m 14,8 km/h (3 Bft)
27.08.2014 06:00 13,5 C 97 % 1010,0 hPa 1,4 l/m W-SW 0,00 h 0 W/m 10,9 km/h (2 Bft)
27.08.2014 07:00 13,6 C 98 % 1010,2 hPa 0,2 l/m W-SW 0,00 h 23 W/m 7,1 km/h (2 Bft)
27.08.2014 08:00 14,0 C 98 % 1011,2 hPa 0,0 l/m W-SW 0,08 h 99 W/m 8,2 km/h (2 Bft)
27.08.2014 09:00 14,9 C 96 % 1011,8 hPa 0,0 l/m W-SW 0,00 h 101 W/m 8,8 km/h (2 Bft)
27.08.2014 10:00 15,4 C 93 % 1012,4 hPa 0,0 l/m W-SW 0,00 h 140 W/m 9,1 km/h (2 Bft)
27.08.2014 11:00 15,5 C 92 % 1012,9 hPa 3,8 l/m W 0,00 h 86 W/m 9,1 km/h (2 Bft)
27.08.2014 12:00 15,6 C 95 % 1013,3 hPa 0,6 l/m W-NW 0,00 h 244 W/m 9,0 km/h (2 Bft)
27.08.2014 13:00 16,5 C 89 % 1013,6 hPa 0,0 l/m N-NO 0,17 h 285 W/m 12,6 km/h (3 Bft)
27.08.2014 14:00 15,5 C 92 % 1014,1 hPa 0,2 l/m N 0,25 h 254 W/m 9,4 km/h (2 Bft)
27.08.2014 15:00 16,4 C 87 % 1014,3 hPa 0,2 l/m N 0,08 h 153 W/m 8,7 km/h (2 Bft)
27.08.2014 16:00 16,0 C 91 % 1014,6 hPa 1,2 l/m N 0,33 h 321 W/m 7,2 km/h (2 Bft)
27.08.2014 17:00 16,4 C 88 % 1014,8 hPa 0,0 l/m N 0,08 h 120 W/m 3,5 km/h (1 Bft)
27.08.2014 18:00 16,2 C 90 % 1015,1 hPa 0,0 l/m O-NO 0,00 h 63 W/m 3,9 km/h (1 Bft)
27.08.2014 19:00 15,7 C 91 % 1015,2 hPa 0,0 l/m O-NO 0,00 h 30 W/m 5,3 km/h (1 Bft)
27.08.2014 20:00 14,7 C 94 % 1015,4 hPa 0,0 l/m N 0,00 h 5 W/m 0,1 km/h (0 Bft)
27.08.2014 21:00 13,7 C 97 % 1015,6 hPa 0,0 l/m N 0,00 h 0 W/m 0,0 km/h (0 Bft)
27.08.2014 22:00 13,2 C 98 % 1015,8 hPa 0,0 l/m N 0,00 h 0 W/m 0,1 km/h (0 Bft)
27.08.2014 23:00 12,6 C 98 % 1015,8 hPa 0,0 l/m N 0,00 h 0 W/m 0,1 km/h (0 Bft)
28.08.2014 00:00 12,2 C 98 % 1015,9 hPa 0,0 l/m N 0,00 h 0 W/m 0,4 km/h (0 Bft)
28.08.2014 01:00 12,1 C 99 % 1016,2 hPa 0,0 l/m N 0,00 h 0 W/m 0,1 km/h (0 Bft)
28.08.2014 02:00 11,9 C 99 % 1016,2 hPa 0,0 l/m N 0,00 h 0 W/m 1,2 km/h (1 Bft)
28.08.2014 03:00 11,8 C 99 % 1016,1 hPa 0,0 l/m N 0,00 h 0 W/m 0,1 km/h (0 Bft)
28.08.2014 04:00 11,5 C 99 % 1016,1 hPa 0,0 l/m N 0,00 h 0 W/m 0,9 km/h (0 Bft)
28.08.2014 05:00 11,3 C 99 % 1016,2 hPa 0,0 l/m N 0,00 h 0 W/m 0,5 km/h (0 Bft)
28.08.2014 06:00 10,8 C 100 % 1016,4 hPa 0,2 l/m O 0,00 h 7 W/m 2,1 km/h (1 Bft)
28.08.2014 07:00 10,7 C 100 % 1016,7 hPa 0,0 l/m N 0,00 h 24 W/m 0,3 km/h (0 Bft)
28.08.2014 08:00 11,4 C 100 % 1017,0 hPa 0,0 l/m O 0,00 h 62 W/m 2,1 km/h (1 Bft)
28.08.2014 09:00 12,4 C 100 % 1017,2 hPa 0,0 l/m N 0,00 h 146 W/m 0,8 km/h (0 Bft)
28.08.2014 10:00 14,3 C 98 % 1017,2 hPa 0,0 l/m O 0,67 h 475 W/m 3,9 km/h (1 Bft)
28.08.2014 11:00 16,7 C 85 % 1017,0 hPa 0,0 l/m O 1,00 h 690 W/m 4,5 km/h (1 Bft)
28.08.2014 12:00 19,0 C 77 % 1016,6 hPa 0,0 l/m SW 0,92 h 788 W/m 6,9 km/h (2 Bft)
28.08.2014 13:00 20,2 C 69 % 1016,3 hPa 0,0 l/m S-SW 0,75 h 732 W/m 6,4 km/h (2 Bft)
28.08.2014 14:00 21,7 C 64 % 1015,9 hPa 0,0 l/m S-SW 0,83 h 740 W/m 9,7 km/h (2 Bft)
28.08.2014 15:00 21,6 C 64 % 1015,6 hPa 0,0 l/m SW 0,33 h 382 W/m 7,9 km/h (2 Bft)
28.08.2014 16:00 22,0 C 63 % 1015,2 hPa 0,0 l/m SW 0,58 h 405 W/m 11,2 km/h (2 Bft)
28.08.2014 17:00 22,1 C 62 % 1015,0 hPa 0,0 l/m SW 0,75 h 327 W/m 12,4 km/h (3 Bft)
28.08.2014 18:00 21,0 C 68 % 1015,0 hPa 0,0 l/m SW 0,67 h 164 W/m 6,7 km/h (2 Bft)
28.08.2014 19:00 18,9 C 74 % 1015,0 hPa 0,0 l/m SW 0,25 h 36 W/m 2,4 km/h (1 Bft)
28.08.2014 20:00 17,3 C 83 % 1015,4 hPa 0,0 l/m N 0,08 h 10 W/m 0,9 km/h (0 Bft)
28.08.2014 21:00 16,0 C 89 % 1015,8 hPa 0,0 l/m N 0,00 h 0 W/m 0,0 km/h (0 Bft)
28.08.2014 22:00 15,2 C 92 % 1015,8 hPa 0,0 l/m N 0,00 h 0 W/m 0,0 km/h (0 Bft)
28.08.2014 23:00 14,4 C 94 % 1015,9 hPa 0,0 l/m N 0,00 h 0 W/m 0,0 km/h (0 Bft)
29.08.2014 00:00 13,7 C 96 % 1016,1 hPa 0,0 l/m N 0,00 h 0 W/m 0,0 km/h (0 Bft)
29.08.2014 01:00 13,0 C 96 % 1016,2 hPa 0,0 l/m N 0,00 h 0 W/m 0,0 km/h (0 Bft)
29.08.2014 02:00 12,2 C 97 % 1016,1 hPa 0,0 l/m N 0,00 h 0 W/m 0,0 km/h (0 Bft)
29.08.2014 03:00 11,9 C 98 % 1015,9 hPa 0,0 l/m N 0,00 h 0 W/m 0,0 km/h (0 Bft)
29.08.2014 04:00 12,0 C 98 % 1015,8 hPa 0,0 l/m N 0,00 h 0 W/m 0,0 km/h (0 Bft)
29.08.2014 05:00 11,4 C 98 % 1015,6 hPa 0,0 l/m N 0,00 h 0 W/m 0,0 km/h (0 Bft)
29.08.2014 06:00 11,7 C 99 % 1015,5 hPa 0,0 l/m SW 0,17 h 18 W/m 0,9 km/h (0 Bft)
29.08.2014 07:00 12,7 C 99 % 1015,8 hPa 0,0 l/m N 0,00 h 26 W/m 0,3 km/h (0 Bft)
29.08.2014 08:00 13,8 C 99 % 1015,8 hPa 0,0 l/m N 0,00 h 57 W/m 0,0 km/h (0 Bft)
29.08.2014 09:00 14,9 C 98 % 1015,8 hPa 0,0 l/m SW 0,00 h 95 W/m 0,7 km/h (0 Bft)
29.08.2014 10:00 16,5 C 94 % 1016,0 hPa 0,0 l/m N 0,00 h 112 W/m 1,3 km/h (1 Bft)
29.08.2014 11:00 17,4 C 93 % 1016,2 hPa 0,0 l/m W 0,00 h 146 W/m 3,1 km/h (1 Bft)
29.08.2014 12:00 18,5 C 88 % 1016,1 hPa 0,0 l/m SW 0,08 h 230 W/m 6,2 km/h (2 Bft)
29.08.2014 13:00 19,8 C 85 % 1015,9 hPa 0,0 l/m S-SW 0,08 h 311 W/m 9,3 km/h (2 Bft)
29.08.2014 14:00 20,5 C 83 % 1015,6 hPa 0,0 l/m S-SW 0,08 h 213 W/m 9,3 km/h (2 Bft)
29.08.2014 15:00 21,5 C 77 % 1015,0 hPa 0,0 l/m SW 0,08 h 267 W/m 10,2 km/h (2 Bft)
29.08.2014 16:00 19,5 C 85 % 1015,0 hPa 2,2 l/m N 0,00 h 34 W/m 6,2 km/h (2 Bft)
29.08.2014 17:00 17,8 C 96 % 1015,3 hPa 7,6 l/m N 0,00 h 16 W/m 4,0 km/h (1 Bft)
29.08.2014 18:00 17,3 C 98 % 1015,4 hPa 1,4 l/m N 0,00 h 29 W/m 2,0 km/h (1 Bft)
29.08.2014 19:00 17,2 C 98 % 1015,3 hPa 0,4 l/m N-NW 0,00 h 14 W/m 2,0 km/h (1 Bft)
29.08.2014 20:00 16,6 C 99 % 1015,3 hPa 0,0 l/m SW 0,00 h 0 W/m 6,2 km/h (2 Bft)
29.08.2014 21:00 16,3 C 99 % 1015,9 hPa 0,0 l/m N 0,00 h 0 W/m 2,0 km/h (1 Bft)
29.08.2014 22:00 16,3 C 99 % 1016,2 hPa 0,0 l/m SW 0,00 h 0 W/m 4,8 km/h (1 Bft)
29.08.2014 23:00 16,2 C 99 % 1016,6 hPa 0,0 l/m SW 0,00 h 0 W/m 2,8 km/h (1 Bft)
30.08.2014 00:00 16,2 C 99 % 1016,7 hPa 0,0 l/m SW 0,00 h 0 W/m 0,8 km/h (0 Bft)
30.08.2014 01:00 16,1 C 99 % 1016,7 hPa 0,2 l/m SW 0,00 h 0 W/m 2,5 km/h (1 Bft)
30.08.2014 02:00 15,7 C 99 % 1016,8 hPa 0,0 l/m N 0,00 h 0 W/m 0,9 km/h (0 Bft)
30.08.2014 03:00 15,3 C 99 % 1016,6 hPa 0,0 l/m SW 0,00 h 0 W/m 0,9 km/h (0 Bft)
30.08.2014 04:00 15,2 C 99 % 1016,8 hPa 0,0 l/m SW 0,00 h 0 W/m 2,1 km/h (1 Bft)
30.08.2014 05:00 15,1 C 99 % 1016,9 hPa 0,0 l/m SW 0,00 h 0 W/m 2,4 km/h (1 Bft)
30.08.2014 06:00 14,8 C 99 % 1016,9 hPa 0,0 l/m N 0,00 h 7 W/m 0,8 km/h (0 Bft)
30.08.2014 07:00 14,8 C 100 % 1017,2 hPa 0,0 l/m N 0,00 h 25 W/m 0,7 km/h (0 Bft)
30.08.2014 08:00 15,3 C 100 % 1017,5 hPa 0,0 l/m N 0,08 h 113 W/m 0,7 km/h (0 Bft)
30.08.2014 09:00 16,2 C 95 % 1017,8 hPa 0,0 l/m N 0,00 h 126 W/m 1,6 km/h (1 Bft)
30.08.2014 10:00 17,2 C 89 % 1017,9 hPa 0,0 l/m SW 0,08 h 274 W/m 3,1 km/h (1 Bft)
30.08.2014 11:00 18,1 C 82 % 1017,7 hPa 0,0 l/m NW 0,42 h 440 W/m 4,6 km/h (1 Bft)
30.08.2014 12:00 19,0 C 79 % 1017,3 hPa 0,0 l/m NW 0,50 h 484 W/m 5,3 km/h (1 Bft)
30.08.2014 13:00 20,1 C 74 % 1016,8 hPa 0,0 l/m SW 0,58 h 593 W/m 8,7 km/h (2 Bft)
30.08.2014 14:00 21,4 C 70 % 1016,2 hPa 0,0 l/m SW 0,75 h 700 W/m 12,5 km/h (3 Bft)
30.08.2014 15:00 21,5 C 67 % 1015,5 hPa 0,0 l/m SW 0,42 h 478 W/m 6,8 km/h (2 Bft)
30.08.2014 16:00 21,7 C 65 % 1015,3 hPa 0,0 l/m N-NO 0,42 h 310 W/m 14,9 km/h (3 Bft)
30.08.2014 17:00 21,5 C 68 % 1015,0 hPa 0,0 l/m N-NO 0,92 h 416 W/m 7,2 km/h (2 Bft)
30.08.2014 18:00 21,5 C 66 % 1014,9 hPa 0,0 l/m N-NO 0,92 h 238 W/m 3,1 km/h (1 Bft)
30.08.2014 19:00 19,8 C 72 % 1015,0 hPa 0,0 l/m N 0,08 h 33 W/m 5,1 km/h (1 Bft)
30.08.2014 20:00 17,0 C 85 % 1015,3 hPa 0,0 l/m N 0,00 h 0 W/m 0,5 km/h (0 Bft)
30.08.2014 21:00 16,6 C 89 % 1015,5 hPa 0,0 l/m N 0,00 h 0 W/m 0,3 km/h (0 Bft)
30.08.2014 22:00 16,3 C 92 % 1015,5 hPa 0,0 l/m N 0,00 h 0 W/m 0,7 km/h (0 Bft)
30.08.2014 23:00 15,6 C 92 % 1015,4 hPa 0,0 l/m N 0,00 h 0 W/m 0,0 km/h (0 Bft)
31.08.2014 00:00 15,0 C 95 % 1015,3 hPa 0,0 l/m N 0,00 h 0 W/m 0,7 km/h (0 Bft)
31.08.2014 01:00 14,1 C 96 % 1015,0 hPa 0,0 l/m N 0,00 h 0 W/m 0,1 km/h (0 Bft)
31.08.2014 02:00 13,3 C 97 % 1014,7 hPa 0,0 l/m N 0,00 h 0 W/m 0,1 km/h (0 Bft)
31.08.2014 03:00 12,9 C 98 % 1014,2 hPa 0,0 l/m N 0,00 h 0 W/m 0,1 km/h (0 Bft)
31.08.2014 04:00 12,9 C 98 % 1013,8 hPa 0,0 l/m N 0,00 h 0 W/m 0,0 km/h (0 Bft)
31.08.2014 05:00 12,9 C 99 % 1013,8 hPa 0,0 l/m N 0,00 h 0 W/m 0,0 km/h (0 Bft)
31.08.2014 06:00 12,7 C 99 % 1013,7 hPa 0,0 l/m N 0,00 h 0 W/m 1,3 km/h (1 Bft)
31.08.2014 07:00 12,6 C 99 % 1013,7 hPa 0,0 l/m N 0,00 h 12 W/m 1,6 km/h (1 Bft)
31.08.2014 08:00 13,3 C 99 % 1013,6 hPa 0,0 l/m W-NW 0,00 h 39 W/m 3,9 km/h (1 Bft)
31.08.2014 09:00 13,9 C 99 % 1013,3 hPa 0,2 l/m SW 0,00 h 77 W/m 7,5 km/h (2 Bft)
31.08.2014 10:00 14,8 C 97 % 1012,9 hPa 0,0 l/m SW 0,00 h 110 W/m 11,6 km/h (2 Bft)
31.08.2014 11:00 15,7 C 93 % 1012,9 hPa 0,0 l/m SW 0,00 h 124 W/m 9,3 km/h (2 Bft)
31.08.2014 12:00 15,7 C 92 % 1012,6 hPa 0,6 l/m SW 0,00 h 85 W/m 11,8 km/h (2 Bft)
31.08.2014 13:00 14,8 C 95 % 1012,3 hPa 3,8 l/m W-SW 0,00 h 84 W/m 15,0 km/h (3 Bft)
31.08.2014 14:00 14,2 C 96 % 1012,4 hPa 2,0 l/m SW 0,00 h 66 W/m 19,4 km/h (3 Bft)
31.08.2014 15:00 12,1 C 96 % 1013,0 hPa 2,0 l/m N-NW 0,00 h 47 W/m 15,3 km/h (3 Bft)
31.08.2014 16:00 11,4 C 96 % 1013,2 hPa 1,6 l/m NW 0,00 h 41 W/m 9,2 km/h (2 Bft)
31.08.2014 17:00 10,9 C 96 % 1013,6 hPa 2,4 l/m W 0,00 h 25 W/m 10,2 km/h (2 Bft)
31.08.2014 18:00 10,7 C 96 % 1013,9 hPa 0,2 l/m SW 0,00 h 41 W/m 10,1 km/h (2 Bft)
31.08.2014 19:00 11,1 C 97 % 1014,5 hPa 0,0 l/m SW 0,00 h 22 W/m 12,4 km/h (3 Bft)
31.08.2014 20:00 10,9 C 97 % 1014,9 hPa 0,0 l/m SW 0,00 h 0 W/m 10,5 km/h (2 Bft)
31.08.2014 21:00 10,7 C 98 % 1015,2 hPa 0,0 l/m SW 0,00 h 0 W/m 9,4 km/h (2 Bft)
31.08.2014 22:00 11,0 C 98 % 1015,2 hPa 0,4 l/m W-SW 0,00 h 0 W/m 10,2 km/h (2 Bft)
31.08.2014 23:00 11,1 C 99 % 1014,8 hPa 0,2 l/m W-SW 0,00 h 0 W/m 9,7 km/h (2 Bft)
Min-Datum _ 25.08.14 25.08.14 26.08.14 - - - - 25.08.14
_ Min-Zeit 04:30 14:40 18:45 - - - - 00:00
Minimum _ 5,9 C 55 % 1005,0 hPa - - - - 0,0 km/h (0 Bft)
Max-Datum _ 28.08.14 28.08.14 25.08.14 29.08.14 - 25.08.14 25.08.14 26.08.14
_ Max-Zeit 16:30 04:50 00:00 17:50 - 06:40 13:05 08:45
Maximum _ 23,0 C 100 % 1018,7 hPa 7,6 l/m - 0,08 h 965 W/m 35,4 km/h
SW (5 Bft)
Durchschnitt _ 14,8 C 90 % 1013,8 hPa #40,0 l/m W-SW #16:05 h 186 W/m 7,1 km/h (2 Bft)